createdAt,value
2023-04-20T00:00:16.064Z,100638.36
2023-04-20T00:02:45.537Z,100631.84
2023-04-20T00:05:14.114Z,100629.77
2023-04-20T00:07:43.296Z,100622.71
2023-04-20T00:10:11.811Z,100617.40
2023-04-20T00:12:42.294Z,100616.36
2023-04-20T00:15:10.779Z,100608.45
2023-04-20T00:17:40.099Z,100612.92
2023-04-20T00:20:10.177Z,100610.17
2023-04-20T00:22:38.676Z,100606.73
2023-04-20T00:25:07.666Z,100604.66
2023-04-20T00:27:36.663Z,100603.13
2023-04-20T00:30:05.547Z,100604.85
2023-04-20T00:32:34.190Z,100601.77
2023-04-20T00:35:02.711Z,100605.02
2023-04-20T00:37:31.295Z,100610.17
2023-04-20T00:39:59.672Z,100609.66
2023-04-20T00:42:27.952Z,100605.20
2023-04-20T00:44:56.324Z,100604.52
2023-04-20T00:47:25.561Z,100603.98
2023-04-20T00:49:54.224Z,100600.88
2023-04-20T00:52:22.787Z,100594.19
2023-04-20T00:54:51.404Z,100590.92
2023-04-20T00:57:24.205Z,100580.60
2023-04-20T00:59:52.636Z,100574.76
2023-04-20T01:02:24.056Z,100573.56
2023-04-20T01:04:52.684Z,100561.36
2023-04-20T01:07:21.047Z,100559.13
2023-04-20T01:09:51.064Z,100561.21
2023-04-20T01:12:19.449Z,100558.99
2023-04-20T01:14:47.709Z,100557.98
2023-04-20T01:17:16.002Z,100551.97
2023-04-20T01:19:47.036Z,100546.13
2023-04-20T01:22:18.379Z,100537.38
2023-04-20T01:24:47.371Z,100528.63
2023-04-20T01:27:17.290Z,100516.95
2023-04-20T01:29:45.972Z,100511.80
2023-04-20T01:32:14.356Z,100503.04
2023-04-20T01:34:42.633Z,100496.19
2023-04-20T01:37:11.311Z,100487.08
2023-04-20T01:39:40.975Z,100478.86
2023-04-20T01:42:09.890Z,100469.05
2023-04-20T01:44:39.323Z,100457.41
2023-04-20T01:47:07.523Z,100439.05
2023-04-20T01:49:36.071Z,100423.77
2023-04-20T01:52:04.566Z,100416.59
2023-04-20T01:54:32.774Z,100411.79
2023-04-20T01:57:03.558Z,100405.27
2023-04-20T01:59:32.557Z,100395.52
2023-04-20T02:02:03.339Z,100390.36
2023-04-20T02:04:35.257Z,100380.05
2023-04-20T02:07:03.426Z,100369.07
2023-04-20T02:09:31.797Z,100361.00
2023-04-20T02:12:00.277Z,100355.52
2023-04-20T02:14:28.555Z,100348.83
2023-04-20T02:16:57.102Z,100336.31
2023-04-20T02:19:25.549Z,100329.11
2023-04-20T02:21:53.898Z,100318.47
2023-04-20T02:24:22.170Z,100306.98
2023-04-20T02:26:50.756Z,100296.00
2023-04-20T02:29:19.375Z,100294.28
2023-04-20T02:31:47.950Z,100289.81
2023-04-20T02:34:17.416Z,100284.33
2023-04-20T02:36:45.798Z,100277.96
2023-04-20T02:39:14.858Z,100274.02
2023-04-20T02:41:43.097Z,100267.15
2023-04-20T02:44:12.058Z,100255.48
2023-04-20T02:46:40.584Z,100252.56
2023-04-20T02:49:09.845Z,100248.10
2023-04-20T02:51:41.599Z,100247.95
2023-04-20T02:54:10.590Z,100237.47
2023-04-20T02:56:38.968Z,100233.69
2023-04-20T02:59:10.027Z,100233.87
2023-04-20T03:01:57.608Z,100229.09
2023-04-20T03:04:28.053Z,100226.17
2023-04-20T03:09:59.535Z,100237.66
2023-04-20T03:12:48.191Z,100220.66
2023-04-20T03:15:36.429Z,100208.82
2023-04-20T03:18:13.420Z,100200.91
2023-04-20T03:20:42.096Z,100189.41
2023-04-20T03:23:11.302Z,100183.73
2023-04-20T03:25:40.182Z,100181.69
2023-04-20T03:28:28.735Z,100181.16
2023-04-20T03:30:57.216Z,100174.46
2023-04-20T03:33:27.124Z,100171.37
2023-04-20T03:35:55.592Z,100166.02
2023-04-20T03:38:24.197Z,100154.85
2023-04-20T03:40:53.492Z,100143.33
2023-04-20T03:43:22.377Z,100133.89
2023-04-20T03:45:50.904Z,100133.36
2023-04-20T03:48:19.858Z,100131.99
2023-04-20T03:50:49.246Z,100132.86
2023-04-20T03:53:17.942Z,100138.52
2023-04-20T03:55:46.932Z,100141.95
2023-04-20T03:58:17.724Z,100145.21
2023-04-20T04:01:09.763Z,100145.38
2023-04-20T04:03:40.410Z,100144.35
2023-04-20T04:06:10.966Z,100140.21
2023-04-20T04:08:39.338Z,100140.89
2023-04-20T04:11:08.020Z,100142.42
2023-04-20T04:13:36.502Z,100138.13
2023-04-20T04:16:06.825Z,100137.42
2023-04-20T04:18:35.537Z,100133.47
2023-04-20T04:21:10.525Z,100129.14
2023-04-20T04:23:39.650Z,100124.84
2023-04-20T04:26:28.089Z,100127.90
2023-04-20T04:28:56.774Z,100127.55
2023-04-20T04:31:26.212Z,100128.23
2023-04-20T04:33:54.457Z,100129.41
2023-04-20T04:36:46.179Z,100127.84
2023-04-20T04:39:16.673Z,100121.30
2023-04-20T04:41:51.639Z,100119.74
2023-04-20T04:44:31.693Z,100112.51
2023-04-20T04:47:02.835Z,100117.98
2023-04-20T04:49:32.546Z,100119.15
2023-04-20T04:52:01.638Z,100109.01
2023-04-20T04:54:30.232Z,100102.99
2023-04-20T04:56:58.614Z,100111.56
2023-04-20T04:59:26.874Z,100113.61
2023-04-20T05:01:55.220Z,100110.13
2023-04-20T05:04:24.052Z,100108.22
2023-04-20T05:06:52.728Z,100113.67
2023-04-20T05:09:21.321Z,100118.11
2023-04-20T05:11:49.889Z,100113.27
2023-04-20T05:14:18.386Z,100109.81
2023-04-20T05:16:46.846Z,100104.95
2023-04-20T05:19:15.667Z,100101.14
2023-04-20T05:21:44.222Z,100099.58
2023-04-20T05:24:12.698Z,100100.05
2023-04-20T05:26:41.509Z,100098.95
2023-04-20T05:29:10.174Z,100093.91
2023-04-20T05:31:38.596Z,100094.39
2023-04-20T05:34:06.937Z,100090.23
2023-04-20T05:36:35.640Z,100090.33
2023-04-20T05:39:04.402Z,100088.22
2023-04-20T05:41:33.398Z,100086.96
2023-04-20T05:44:02.907Z,100085.05
2023-04-20T05:46:31.787Z,100084.67
2023-04-20T05:49:00.178Z,100082.95
2023-04-20T05:51:32.847Z,100086.53
2023-04-20T05:54:02.062Z,100084.95
2023-04-20T05:56:30.830Z,100085.30
2023-04-20T05:58:58.997Z,100087.85
2023-04-20T06:01:27.398Z,100091.10
2023-04-20T06:03:56.411Z,100089.39
2023-04-20T06:06:25.590Z,100089.73
2023-04-20T06:08:55.280Z,100091.80
2023-04-20T06:11:23.764Z,100091.10
2023-04-20T06:13:52.053Z,100092.45
2023-04-20T06:16:20.889Z,100094.32
2023-04-20T06:18:49.819Z,100093.11
2023-04-20T06:21:18.105Z,100090.70
2023-04-20T06:23:46.581Z,100092.25
2023-04-20T06:26:14.756Z,100088.27
2023-04-20T06:28:43.435Z,100085.84
2023-04-20T06:31:12.081Z,100083.57
2023-04-20T06:33:41.022Z,100081.63
2023-04-20T06:36:09.292Z,100083.30
2023-04-20T06:38:37.662Z,100079.11
2023-04-20T06:41:06.246Z,100077.86
2023-04-20T06:43:34.829Z,100078.84
2023-04-20T06:46:03.128Z,100078.59
2023-04-20T06:48:33.075Z,100079.91
2023-04-20T06:51:02.133Z,100076.77
2023-04-20T06:53:30.387Z,100075.15
2023-04-20T06:55:58.886Z,100071.45
2023-04-20T06:58:27.247Z,100073.97
2023-04-20T07:00:55.767Z,100072.35
2023-04-20T07:03:24.556Z,100072.24
2023-04-20T07:05:52.993Z,100069.41
2023-04-20T07:19:04.238Z,100076.55
2023-04-20T07:21:33.514Z,100063.23
2023-04-20T07:24:02.256Z,100063.35
2023-04-20T07:26:31.336Z,100064.84
2023-04-20T07:28:59.701Z,100062.73
2023-04-20T07:31:28.124Z,100062.84
2023-04-20T07:33:56.450Z,100061.42
2023-04-20T07:36:25.239Z,100064.89
2023-04-20T07:38:53.731Z,100068.11
2023-04-20T07:41:23.333Z,100069.99
2023-04-20T07:43:51.609Z,100068.27
2023-04-20T07:46:21.412Z,100070.52
2023-04-20T07:48:49.610Z,100075.86
2023-04-20T07:51:18.187Z,100070.86
2023-04-20T07:53:47.080Z,100076.73
2023-04-20T07:56:15.233Z,100075.66
2023-04-20T07:58:43.620Z,100076.82
2023-04-20T08:01:11.994Z,100074.02
2023-04-20T08:03:41.772Z,100076.23
2023-04-20T08:06:10.697Z,100073.29
2023-04-20T08:08:38.876Z,100082.78
2023-04-20T08:11:08.384Z,100080.24
2023-04-20T08:13:37.506Z,100075.30
2023-04-20T08:16:07.871Z,100077.16
2023-04-20T08:18:36.478Z,100077.75
2023-04-20T08:21:04.864Z,100081.08
2023-04-20T08:23:33.138Z,100085.55
2023-04-20T08:26:02.020Z,100082.96
2023-04-20T08:28:33.700Z,100086.11
2023-04-20T08:31:02.947Z,100084.59
2023-04-20T08:33:31.255Z,100087.02
2023-04-20T08:35:59.634Z,100075.89
2023-04-20T08:38:33.933Z,100080.30
2023-04-20T08:41:02.951Z,100079.31
2023-04-20T08:43:31.828Z,100077.59
2023-04-20T08:46:01.986Z,100079.46
2023-04-20T08:48:37.393Z,100078.38
2023-04-20T08:51:06.316Z,100079.91
2023-04-20T08:53:34.562Z,100083.21
2023-04-20T08:56:02.934Z,100085.00
2023-04-20T08:58:32.434Z,100086.90
2023-04-20T09:01:01.652Z,100090.23
2023-04-20T09:03:34.854Z,100091.63
2023-04-20T09:06:04.742Z,100095.11
2023-04-20T09:08:40.619Z,100093.77
2023-04-20T09:11:20.645Z,100094.74
2023-04-20T09:14:03.194Z,100089.98
2023-04-20T09:16:32.057Z,100095.26
2023-04-20T09:19:00.422Z,100098.91
2023-04-20T09:21:29.212Z,100099.48
2023-04-20T09:23:58.915Z,100105.52
2023-04-20T09:26:27.607Z,100105.08
2023-04-20T09:28:55.776Z,100106.25
2023-04-20T09:31:24.322Z,100103.61
2023-04-20T09:33:59.825Z,100105.38
2023-04-20T09:36:47.959Z,100103.37
2023-04-20T09:39:20.965Z,100103.43
2023-04-20T09:41:50.338Z,100101.25
2023-04-20T09:44:19.623Z,100101.11
2023-04-20T09:46:48.348Z,100099.40
2023-04-20T09:49:17.207Z,100100.95
2023-04-20T09:51:45.587Z,100102.72
2023-04-20T09:54:14.277Z,100105.84
2023-04-20T09:56:43.487Z,100104.48
2023-04-20T09:59:12.456Z,100107.77
2023-04-20T10:01:41.205Z,100107.10
2023-04-20T10:04:14.836Z,100108.86
2023-04-20T10:06:58.234Z,100113.64
2023-04-20T10:09:26.871Z,100122.53
2023-04-20T10:12:05.793Z,100127.10
2023-04-20T10:14:35.780Z,100121.95
2023-04-20T10:17:09.123Z,100125.41
2023-04-20T10:19:44.976Z,100131.39
2023-04-20T10:22:14.660Z,100131.20
2023-04-20T10:24:43.348Z,100137.02
2023-04-20T10:27:18.477Z,100134.59
2023-04-20T10:29:46.886Z,100136.65
2023-04-20T10:32:28.330Z,100138.98
2023-04-20T10:35:02.592Z,100138.09
2023-04-20T10:37:32.424Z,100144.65
2023-04-20T10:40:00.954Z,100142.98
2023-04-20T10:42:31.790Z,100146.27
2023-04-20T10:45:00.111Z,100149.41
2023-04-20T10:47:32.452Z,100157.52
2023-04-20T10:50:16.477Z,100150.96
2023-04-20T10:52:44.782Z,100160.41
2023-04-20T10:55:20.341Z,100151.57
2023-04-20T10:57:49.123Z,100154.17
2023-04-20T11:00:18.572Z,100161.27
2023-04-20T11:02:50.683Z,100158.89
2023-04-20T11:05:19.774Z,100159.64
2023-04-20T11:07:55.291Z,100165.00
2023-04-20T11:10:38.476Z,100155.70
2023-04-20T11:13:07.476Z,100167.27
2023-04-20T11:18:33.976Z,100177.27
2023-04-20T11:21:02.250Z,100169.52
2023-04-20T11:23:37.694Z,100170.38
2023-04-20T11:26:06.992Z,100171.60
2023-04-20T11:28:35.268Z,100168.48
2023-04-20T11:31:04.488Z,100161.89
2023-04-20T11:33:34.424Z,100166.32
2023-04-20T11:36:03.180Z,100164.23
2023-04-20T11:38:32.876Z,100165.93
2023-04-20T11:41:04.918Z,100163.15
2023-04-20T11:43:33.857Z,100166.97
2023-04-20T11:46:03.202Z,100164.07
2023-04-20T11:48:32.140Z,100165.48
2023-04-20T11:51:00.706Z,100163.41
2023-04-20T11:53:29.189Z,100165.44
2023-04-20T11:55:57.773Z,100166.46
2023-04-20T11:58:26.042Z,100166.30
2023-04-20T12:00:54.418Z,100166.98
2023-04-20T12:03:23.314Z,100171.16
2023-04-20T12:05:51.893Z,100176.00
2023-04-20T12:08:20.999Z,100173.14
2023-04-20T12:10:49.364Z,100177.83
2023-04-20T12:13:17.852Z,100181.85
2023-04-20T12:15:46.275Z,100184.96
2023-04-20T12:18:14.713Z,100184.80
2023-04-20T12:20:43.293Z,100182.92
2023-04-20T12:23:11.460Z,100181.92
2023-04-20T12:25:39.839Z,100184.04
2023-04-20T12:28:08.318Z,100184.09
2023-04-20T12:30:36.901Z,100187.17
2023-04-20T12:33:05.337Z,100183.77
2023-04-20T12:35:33.890Z,100182.25
2023-04-20T12:38:02.350Z,100183.61
2023-04-20T12:40:31.442Z,100185.51
2023-04-20T12:43:00.033Z,100183.66
2023-04-20T12:45:28.409Z,100181.98
2023-04-20T12:47:58.445Z,100183.55
2023-04-20T12:50:28.330Z,100182.54
2023-04-20T12:52:58.645Z,100184.27
2023-04-20T12:55:26.926Z,100181.54
2023-04-20T12:57:55.410Z,100177.27
2023-04-20T13:00:24.193Z,100176.43
2023-04-20T13:02:52.672Z,100175.58
2023-04-20T13:05:21.466Z,100168.86
2023-04-20T13:07:49.746Z,100170.39
2023-04-20T13:10:18.327Z,100169.19
2023-04-20T13:12:46.704Z,100164.20
2023-04-20T13:15:16.198Z,100163.69
2023-04-20T13:17:47.898Z,100157.17
2023-04-20T13:20:16.237Z,100156.65
2023-04-20T13:22:54.779Z,100154.09
2023-04-20T13:25:26.844Z,100151.20
2023-04-20T13:27:55.398Z,100149.66
2023-04-20T13:30:24.570Z,100146.21
2023-04-20T13:32:53.230Z,100141.38
2023-04-20T13:35:21.966Z,100135.16
2023-04-20T13:37:50.640Z,100133.24
2023-04-20T13:40:18.944Z,100135.02
2023-04-20T13:42:47.317Z,100136.23
2023-04-20T13:45:15.788Z,100128.77
2023-04-20T13:47:44.498Z,100129.05
2023-04-20T13:50:12.765Z,100124.25
2023-04-20T13:52:41.232Z,100127.89
2023-04-20T13:55:10.031Z,100129.27
2023-04-20T13:57:38.195Z,100132.40
2023-04-20T14:00:07.904Z,100138.30
2023-04-20T14:02:36.994Z,100139.00
2023-04-20T14:05:06.616Z,100141.95
2023-04-20T14:07:34.776Z,100147.30
2023-04-20T14:10:03.371Z,100145.48
2023-04-20T14:12:33.825Z,100147.25
2023-04-20T14:15:02.790Z,100149.88
2023-04-20T14:17:31.648Z,100152.98
2023-04-20T14:20:00.312Z,100151.83
2023-04-20T14:22:34.480Z,100160.61
2023-04-20T14:25:05.096Z,100166.11
2023-04-20T14:27:34.304Z,100163.35
2023-04-20T14:30:03.229Z,100163.52
2023-04-20T14:32:31.867Z,100165.91
2023-04-20T14:35:01.406Z,100168.84
2023-04-20T14:37:31.188Z,100169.36
2023-04-20T14:39:59.258Z,100170.23
2023-04-20T14:42:27.493Z,100173.48
2023-04-20T14:44:56.126Z,100174.66
2023-04-20T14:47:24.530Z,100175.33
2023-04-20T14:49:52.972Z,100175.32
2023-04-20T14:52:21.457Z,100174.66
2023-04-20T14:54:49.935Z,100175.52
2023-04-20T14:57:18.821Z,100182.07
2023-04-20T14:59:47.104Z,100184.86
2023-04-20T15:02:15.489Z,100186.10
2023-04-20T15:04:44.177Z,100181.34
2023-04-20T15:07:12.543Z,100181.39
2023-04-20T15:09:41.846Z,100180.55
2023-04-20T15:12:10.016Z,100184.52
2023-04-20T15:17:54.185Z,100190.73
2023-04-20T15:20:22.761Z,100186.27
2023-04-20T15:22:51.246Z,100180.96
2023-04-20T15:28:21.179Z,100193.14
2023-04-20T15:30:49.766Z,100183.20
2023-04-20T15:33:18.099Z,100180.82
2023-04-20T15:35:48.567Z,100177.59
2023-04-20T15:38:19.805Z,100175.70
2023-04-20T15:40:48.290Z,100175.02
2023-04-20T15:43:16.775Z,100177.60
2023-04-20T15:45:45.094Z,100175.89
2023-04-20T15:48:13.331Z,100177.98
2023-04-20T15:50:41.917Z,100175.27
2023-04-20T15:53:10.288Z,100177.17
2023-04-20T15:55:39.582Z,100179.08
2023-04-20T15:58:07.860Z,100177.21
2023-04-20T16:00:36.550Z,100175.36
2023-04-20T16:03:04.927Z,100173.46
2023-04-20T16:05:33.405Z,100178.11
2023-04-20T16:08:01.675Z,100174.86
2023-04-20T16:10:30.376Z,100178.14
2023-04-20T16:12:58.737Z,100176.27
2023-04-20T16:15:27.222Z,100180.91
2023-04-20T16:17:55.645Z,100179.72
2023-04-20T16:20:23.974Z,100176.48
2023-04-20T16:22:52.468Z,100177.19
2023-04-20T16:25:23.294Z,100170.17
2023-04-20T16:27:51.827Z,100168.81
2023-04-20T16:30:20.461Z,100168.83
2023-04-20T16:32:50.152Z,100170.90
2023-04-20T16:35:21.208Z,100171.59
2023-04-20T16:37:49.792Z,100172.80
2023-04-20T17:17:45.746Z,100170.98
2023-04-20T17:20:14.551Z,100169.61
2023-04-20T17:22:43.025Z,100169.45
2023-04-20T17:25:11.513Z,100167.57
2023-04-20T17:27:40.909Z,100169.97
2023-04-20T17:30:10.316Z,100169.47
2023-04-20T17:32:38.688Z,100165.71
2023-04-20T17:35:08.129Z,100164.52
2023-04-20T17:37:36.775Z,100159.05
2023-04-20T17:40:06.474Z,100156.13
2023-04-20T17:42:35.170Z,100154.42
2023-04-20T17:45:03.751Z,100154.23
2023-04-20T17:47:32.956Z,100153.90
2023-04-20T17:50:01.684Z,100151.66
2023-04-20T17:52:30.522Z,100151.17
2023-04-20T17:55:00.334Z,100154.26
2023-04-20T17:57:29.127Z,100150.48
2023-04-20T17:59:57.401Z,100148.27
2023-04-20T18:02:26.151Z,100144.66
2023-04-20T18:04:57.849Z,100144.48
2023-04-20T18:07:27.451Z,100145.19
2023-04-20T18:09:55.828Z,100141.41
2023-04-20T18:12:24.308Z,100140.90
2023-04-20T18:14:52.589Z,100141.75
2023-04-20T18:17:20.887Z,100144.31
2023-04-20T18:19:49.753Z,100140.19
2023-04-20T18:22:18.036Z,100139.52
2023-04-20T18:24:46.624Z,100143.27
2023-04-20T18:27:15.095Z,100144.64
2023-04-20T18:29:43.470Z,100144.13
2023-04-20T18:32:12.255Z,100140.17
2023-04-20T18:34:40.631Z,100138.29
2023-04-20T18:37:10.034Z,100139.15
2023-04-20T18:39:39.433Z,100139.84
2023-04-20T18:42:07.610Z,100143.95
2023-04-20T18:44:36.038Z,100140.17
2023-04-20T18:47:04.593Z,100142.42
2023-04-20T18:49:34.978Z,100143.44
2023-04-20T18:52:03.377Z,100138.81
2023-04-20T18:54:32.678Z,100137.09
2023-04-20T18:57:02.079Z,100137.42
2023-04-20T18:59:31.072Z,100136.06
2023-04-20T19:01:59.526Z,100135.38
2023-04-20T19:04:28.783Z,100135.04
2023-04-20T19:06:57.228Z,100137.95
2023-04-20T19:09:26.322Z,100135.20
2023-04-20T19:11:54.720Z,100140.36
2023-04-20T19:14:23.385Z,100131.96
2023-04-20T19:16:51.839Z,100137.11
2023-04-20T19:19:21.067Z,100137.46
2023-04-20T19:21:49.456Z,100136.42
2023-04-20T19:24:18.252Z,100133.52
2023-04-20T19:26:47.117Z,100130.78
2023-04-20T19:29:15.500Z,100128.38
2023-04-20T19:31:43.913Z,100126.49
2023-04-20T19:34:13.887Z,100124.28
2023-04-20T19:36:42.374Z,100126.17
2023-04-20T19:39:10.854Z,100126.52
2023-04-20T19:41:39.439Z,100130.11
2023-04-20T19:44:10.062Z,100129.09
2023-04-20T19:46:38.815Z,100124.11
2023-04-20T19:49:07.441Z,100121.38
2023-04-20T19:51:35.754Z,100121.04
2023-04-20T19:54:04.908Z,100123.98
2023-04-20T19:56:34.718Z,100126.73
2023-04-20T19:59:02.891Z,100124.84
2023-04-20T20:01:31.823Z,100125.86
2023-04-20T20:04:00.327Z,100121.58
2023-04-20T20:06:28.850Z,100119.35
2023-04-20T20:08:57.442Z,100116.44
2023-04-20T20:11:25.831Z,100114.56
2023-04-20T20:13:54.298Z,100116.61
2023-04-20T20:16:22.750Z,100117.48
2023-04-20T20:18:51.548Z,100117.81
2023-04-20T20:21:19.733Z,100113.17
2023-04-20T20:23:48.009Z,100107.36
2023-04-20T20:26:16.496Z,100108.05
2023-04-20T20:28:44.766Z,100107.38
2023-04-20T20:31:13.621Z,100107.56
2023-04-20T20:33:43.099Z,100103.95
2023-04-20T20:36:11.632Z,100097.27
2023-04-20T20:38:40.848Z,100095.04
2023-04-20T20:41:09.518Z,100096.41
2023-04-20T20:43:38.306Z,100092.98
2023-04-20T20:46:06.967Z,100094.36
2023-04-20T20:48:35.470Z,100095.56
2023-04-20T20:51:03.844Z,100091.96
2023-04-20T20:53:32.731Z,100085.96
2023-04-20T20:56:01.117Z,100083.05
2023-04-20T20:58:29.694Z,100084.44
2023-04-20T21:00:57.933Z,100085.11
2023-04-20T21:03:26.827Z,100085.30
2023-04-20T21:05:55.240Z,100084.13
2023-04-20T21:08:24.550Z,100082.08
2023-04-20T21:10:52.820Z,100080.87
2023-04-20T21:13:22.322Z,100079.66
2023-04-20T21:15:50.807Z,100077.43
2023-04-20T21:18:19.285Z,100075.21
2023-04-20T21:20:47.671Z,100078.98
2023-04-20T21:23:16.860Z,100082.05
2023-04-20T21:25:45.443Z,100079.50
2023-04-20T21:28:14.023Z,100082.23
2023-04-20T21:30:42.421Z,100075.20
2023-04-20T21:33:11.117Z,100075.38
2023-04-20T21:35:39.266Z,100075.89
2023-04-20T21:38:07.542Z,100071.27
2023-04-20T21:40:36.225Z,100070.75
2023-04-20T21:43:04.499Z,100071.27
2023-04-20T21:45:32.975Z,100059.95
2023-04-20T21:48:01.297Z,100064.26
2023-04-20T21:50:29.733Z,100063.39
2023-04-20T21:52:58.054Z,100063.39
2023-04-20T21:55:26.285Z,100060.31
2023-04-20T21:57:54.970Z,100056.20
2023-04-20T22:00:23.858Z,100056.20
2023-04-20T22:02:52.381Z,100050.89
2023-04-20T22:05:21.924Z,100043.88
2023-04-20T22:07:50.222Z,100041.98
2023-04-20T22:10:18.602Z,100044.05
2023-04-20T22:12:46.978Z,100043.38
2023-04-20T22:15:15.471Z,100041.49
2023-04-20T22:17:46.766Z,100037.57
2023-04-20T22:20:16.320Z,100031.91
2023-04-20T22:22:44.800Z,100032.79
2023-04-20T22:25:13.276Z,100032.63
2023-04-20T22:27:41.756Z,100031.95
2023-04-20T22:30:10.644Z,100029.05
2023-04-20T22:32:39.412Z,100027.51
2023-04-20T22:35:08.432Z,100030.24
2023-04-20T22:37:37.018Z,100030.59
2023-04-20T22:40:06.111Z,100026.83
2023-04-20T22:42:36.269Z,100024.09
2023-04-20T22:45:05.519Z,100022.72
2023-04-20T22:47:35.267Z,100022.38
2023-04-20T22:50:04.091Z,100017.60
2023-04-20T22:52:32.620Z,100011.42
2023-04-20T22:55:01.013Z,100005.80
2023-04-20T22:57:29.666Z,100002.89
2023-04-20T22:59:58.452Z,100006.14
2023-04-20T23:02:27.072Z,100001.70
2023-04-20T23:04:56.038Z,100002.05
2023-04-20T23:07:24.417Z,100003.75
2023-04-20T23:09:53.907Z,99999.98
2023-04-20T23:12:22.729Z,99996.55
2023-04-20T23:14:51.000Z,99997.07
2023-04-20T23:17:19.459Z,99996.73
2023-04-20T23:19:47.844Z,99993.46
2023-04-20T23:22:16.216Z,99994.14
2023-04-20T23:24:44.795Z,99993.29
2023-04-20T23:27:13.265Z,99997.73
2023-04-20T23:29:41.853Z,99997.72
2023-04-20T23:32:10.724Z,99997.20
2023-04-20T23:34:39.736Z,99997.71
2023-04-20T23:37:08.010Z,99986.73
2023-04-20T23:39:37.620Z,99990.86
2023-04-20T23:42:06.139Z,99987.27
2023-04-20T23:44:35.400Z,99985.39
2023-04-20T23:47:03.679Z,99979.02
2023-04-20T23:49:32.607Z,99979.21
2023-04-20T23:52:00.941Z,99980.58
2023-04-20T23:54:31.235Z,99979.23
2023-04-20T23:57:01.454Z,99978.55
2023-04-20T23:59:29.964Z,99979.26
